createdAt,value
2018-01-27T00:01:30.812Z,8.5
2018-01-27T00:03:31.473Z,8.55
2018-01-27T00:04:21.762Z,8.47
2018-01-27T00:06:53.626Z,8.42
2018-01-27T00:08:33.764Z,8.32
2018-01-27T00:10:33.069Z,8.32
2018-01-27T00:11:25.648Z,8.36
2018-01-27T00:12:17.127Z,8.31
2018-01-27T00:13:10.651Z,8.31
2018-01-27T00:14:47.946Z,8.36
2018-01-27T00:15:43.837Z,8.36
2018-01-27T00:17:20.278Z,8.24
2018-01-27T00:20:16.059Z,8.22
2018-01-27T00:21:09.209Z,8.28
2018-01-27T00:23:16.973Z,8.24
2018-01-27T00:24:56.915Z,8.2
2018-01-27T00:26:34.229Z,8.25
2018-01-27T00:28:32.332Z,8.18
2018-01-27T00:30:33.260Z,8.18
2018-01-27T00:36:49.472Z,8.12
2018-01-27T00:37:41.319Z,8.17
2018-01-27T00:38:33.260Z,8.17
2018-01-27T00:40:39.261Z,8.21
2018-01-27T00:41:30.373Z,8.06
2018-01-27T00:42:29.317Z,8.04
2018-01-27T00:44:37.701Z,8.02
2018-01-27T00:49:24.620Z,7.79
2018-01-27T00:50:17.930Z,7.86
2018-01-27T00:52:17.013Z,7.91
2018-01-27T00:54:15.358Z,7.84
2018-01-27T00:57:17.601Z,7.84
2018-01-27T00:59:17.557Z,7.81
2018-01-27T01:03:44.661Z,7.96
2018-01-27T01:04:36.778Z,7.99
2018-01-27T01:07:19.150Z,7.95
2018-01-27T01:10:31.532Z,8.04
2018-01-27T01:12:29.856Z,8.1
2018-01-27T01:14:37.701Z,8.21
2018-01-27T01:25:09.227Z,8.42
2018-01-27T01:25:59.774Z,8.4
2018-01-27T01:26:54.378Z,8.43
2018-01-27T01:28:33.262Z,8.42
2018-01-27T01:32:07.018Z,8.61
2018-01-27T01:33:00.889Z,8.6
2018-01-27T01:37:43.561Z,8.78
2018-01-27T01:39:47.977Z,8.89
2018-01-27T01:41:33.610Z,8.93
2018-01-27T01:43:10.310Z,8.93
2018-01-27T01:48:34.397Z,9.08
2018-01-27T01:54:16.651Z,9.2
2018-01-27T01:55:08.561Z,9.3
2018-01-27T01:56:13.532Z,9.59
2018-01-27T01:57:06.680Z,9.63
2018-01-27T01:58:53.957Z,9.89
2018-01-27T01:59:42.792Z,10.04
2018-01-27T02:00:32.199Z,10.06
2018-01-27T02:01:20.677Z,10.11
2018-01-27T02:02:08.740Z,10.13
2018-01-27T02:02:57.469Z,10.2
2018-01-27T02:05:06.074Z,10.22
2018-01-27T02:09:23.458Z,10.24
2018-01-27T02:10:15.960Z,10.16
2018-01-27T02:13:24.371Z,10.22
2018-01-27T02:14:17.918Z,10.22
2018-01-27T02:15:55.923Z,10.2
2018-01-27T02:19:58.258Z,10.16
2018-01-27T02:20:49.802Z,10.07
2018-01-27T02:22:47.442Z,9.93
2018-01-27T02:23:42.158Z,9.96
2018-01-27T02:25:19.185Z,9.85
2018-01-27T02:28:30.108Z,9.96
2018-01-27T02:29:23.255Z,9.95
2018-01-27T02:30:20.194Z,9.8
2018-01-27T02:32:35.995Z,9.52
2018-01-27T02:36:17.893Z,9.2
2018-01-27T02:37:09.472Z,9.16
2018-01-27T02:39:18.800Z,9.17
2018-01-27T02:40:58.873Z,8.97
2018-01-27T02:44:15.465Z,8.73
2018-01-27T02:46:14.437Z,8.73
2018-01-27T02:50:20.235Z,8.43
2018-01-27T02:53:05.144Z,8.54
2018-01-27T02:56:36.737Z,9.22
2018-01-27T02:58:14.665Z,9.31
2018-01-27T03:00:22.832Z,9.44
2018-01-27T03:04:28.512Z,9.67
2018-01-27T03:06:28.300Z,9.44
2018-01-27T03:08:27.459Z,9.45
2018-01-27T03:09:33.126Z,9.38
2018-01-27T03:12:23.701Z,9.2
2018-01-27T03:14:27.489Z,9.08
2018-01-27T03:18:41.801Z,8.85
2018-01-27T03:20:49.112Z,8.88
2018-01-27T03:22:51.578Z,8.78
2018-01-27T03:26:48.421Z,8.67
2018-01-27T03:27:39.493Z,8.64
2018-01-27T03:32:48.043Z,8.58
2018-01-27T03:33:38.914Z,8.5
2018-01-27T03:35:45.892Z,8.55
2018-01-27T03:36:37.844Z,8.52
2018-01-27T03:37:30.422Z,8.6
2018-01-27T03:38:20.838Z,8.43
2018-01-27T03:40:17.772Z,8.43
2018-01-27T03:45:43.797Z,8.94
2018-01-27T03:52:36.615Z,8.76
2018-01-27T03:55:40.115Z,8.71
2018-01-27T03:58:18.050Z,8.57
2018-01-27T03:59:07.930Z,8.55
2018-01-27T03:59:55.594Z,8.54
2018-01-27T04:00:44.321Z,8.5
2018-01-27T04:01:34.501Z,8.52
2018-01-27T04:02:23.374Z,8.47
2018-01-27T04:42:21.839Z,6.9
2018-01-27T04:43:11.405Z,6.86
2018-01-27T04:44:52.996Z,6.78
2018-01-27T04:45:39.841Z,6.64
2018-01-27T04:46:20.253Z,6.71
2018-01-27T04:47:00.640Z,6.69
2018-01-27T04:47:41.074Z,6.76
2018-01-27T04:48:21.434Z,6.76
2018-01-27T04:49:01.849Z,6.78
2018-01-27T04:49:42.245Z,6.72
2018-01-27T04:50:22.672Z,6.89
2018-01-27T04:51:03.027Z,6.86
2018-01-27T04:51:43.477Z,6.82
2018-01-27T04:52:23.827Z,6.86
2018-01-27T04:53:04.267Z,6.93
2018-01-27T04:53:44.703Z,6.96
2018-01-27T04:54:25.170Z,6.97
2018-01-27T04:55:05.542Z,7.07
2018-01-27T04:55:45.943Z,7.04
2018-01-27T04:56:26.312Z,7.07
2018-01-27T04:57:06.764Z,7.09
2018-01-27T04:57:47.269Z,7.11
2018-01-27T04:58:27.672Z,7.11
2018-01-27T04:59:08.040Z,7.16
2018-01-27T04:59:48.426Z,7.19
2018-01-27T05:00:28.820Z,7.16
2018-01-27T05:01:09.254Z,7.26
2018-01-27T05:01:49.636Z,7.26
2018-01-27T05:02:30.147Z,7.29
2018-01-27T05:03:10.507Z,7.34
2018-01-27T05:03:50.994Z,7.3
2018-01-27T05:04:31.366Z,7.42
2018-01-27T05:05:11.724Z,7.58
2018-01-27T05:05:52.107Z,7.58
2018-01-27T05:06:32.545Z,7.63
2018-01-27T05:07:12.934Z,7.67
2018-01-27T05:07:53.300Z,7.76
2018-01-27T05:08:33.698Z,7.84
2018-01-27T05:09:14.112Z,7.85
2018-01-27T05:09:54.535Z,7.89
2018-01-27T05:10:34.921Z,7.94
2018-01-27T05:11:15.316Z,7.95
2018-01-27T05:11:55.685Z,7.84
2018-01-27T05:12:36.076Z,7.91
2018-01-27T05:13:16.480Z,7.92
2018-01-27T05:13:56.938Z,7.96
2018-01-27T05:14:37.341Z,7.91
2018-01-27T05:15:17.765Z,7.89
2018-01-27T05:15:58.236Z,7.96
2018-01-27T05:16:38.579Z,8.02
2018-01-27T05:17:19.032Z,8.03
2018-01-27T05:17:59.446Z,8.03
2018-01-27T05:18:39.807Z,7.94
2018-01-27T05:19:20.209Z,7.91
2018-01-27T05:20:00.603Z,8
2018-01-27T05:20:40.999Z,8.09
2018-01-27T05:21:21.446Z,8.12
2018-01-27T05:22:01.844Z,8.13
2018-01-27T05:22:42.256Z,8.18
2018-01-27T05:23:22.702Z,8.09
2018-01-27T05:24:03.133Z,8.1
2018-01-27T05:24:43.498Z,8.13
2018-01-27T05:25:23.868Z,8.21
2018-01-27T05:26:04.393Z,8.21
2018-01-27T05:26:44.766Z,8.2
2018-01-27T05:27:25.108Z,8.2
2018-01-27T05:28:05.556Z,8.18
2018-01-27T05:28:45.886Z,8.32
2018-01-27T05:29:26.288Z,8.32
2018-01-27T05:30:06.752Z,8.4
2018-01-27T05:30:47.132Z,8.47
2018-01-27T05:31:27.568Z,8.42
2018-01-27T05:32:07.885Z,8.52
2018-01-27T05:32:48.368Z,8.54
2018-01-27T05:33:28.743Z,8.52
2018-01-27T05:34:09.129Z,8.64
2018-01-27T05:34:49.636Z,8.7
2018-01-27T05:35:29.982Z,8.71
2018-01-27T05:36:10.400Z,8.7
2018-01-27T05:36:50.768Z,8.64
2018-01-27T05:37:31.204Z,8.67
2018-01-27T05:38:11.669Z,8.65
2018-01-27T05:38:51.966Z,8.63
2018-01-27T05:39:32.397Z,8.67
2018-01-27T05:40:12.859Z,8.7
2018-01-27T05:40:53.245Z,8.68
2018-01-27T05:41:33.635Z,8.73
2018-01-27T05:42:13.996Z,8.73
2018-01-27T05:42:54.432Z,8.89
2018-01-27T05:43:34.861Z,8.89
2018-01-27T05:44:15.306Z,8.93
2018-01-27T05:44:55.757Z,8.94
2018-01-27T05:45:36.166Z,9.06
2018-01-27T05:46:16.533Z,9.03
2018-01-27T05:46:56.911Z,9.1
2018-01-27T05:47:37.337Z,9.1
2018-01-27T05:48:17.768Z,9.08
2018-01-27T05:48:58.163Z,9.16
2018-01-27T05:49:38.592Z,9.23
2018-01-27T05:50:18.924Z,9.17
2018-01-27T05:50:59.328Z,9.27
2018-01-27T05:51:39.807Z,9.27
2018-01-27T05:52:20.306Z,9.2
2018-01-27T05:53:00.620Z,9.22
2018-01-27T05:53:41.063Z,9.08
2018-01-27T05:54:21.417Z,9
2018-01-27T05:55:01.934Z,8.96
2018-01-27T05:55:42.274Z,8.91
2018-01-27T05:56:22.592Z,8.97
2018-01-27T05:57:03.082Z,8.89
2018-01-27T05:57:43.483Z,8.76
2018-01-27T05:58:23.852Z,8.76
2018-01-27T05:59:04.320Z,8.83
2018-01-27T05:59:44.755Z,8.75
2018-01-27T06:00:25.128Z,8.78
2018-01-27T06:01:05.556Z,8.78
2018-01-27T06:01:46.007Z,8.7
2018-01-27T06:02:26.447Z,8.73
2018-01-27T06:03:06.894Z,8.65
2018-01-27T06:03:47.207Z,8.63
2018-01-27T06:04:27.661Z,8.65
2018-01-27T06:05:08.049Z,8.61
2018-01-27T06:05:48.459Z,8.67
2018-01-27T06:06:28.779Z,8.67
2018-01-27T06:07:09.253Z,8.64
2018-01-27T06:07:49.670Z,8.52
2018-01-27T06:08:30.024Z,8.58
2018-01-27T06:09:10.437Z,8.54
2018-01-27T06:09:50.875Z,8.52
2018-01-27T06:10:31.307Z,8.52
2018-01-27T06:11:11.677Z,8.46
2018-01-27T06:11:52.111Z,8.58
2018-01-27T06:12:32.510Z,8.54
2018-01-27T06:13:12.900Z,8.45
2018-01-27T06:13:53.209Z,8.54
2018-01-27T06:14:33.629Z,8.47
2018-01-27T06:15:14.095Z,8.47
2018-01-27T06:15:54.499Z,8.45
2018-01-27T06:16:34.982Z,8.5
2018-01-27T06:17:15.424Z,8.47
2018-01-27T06:17:55.820Z,8.49
2018-01-27T06:18:36.227Z,8.49
2018-01-27T06:19:16.602Z,8.36
2018-01-27T06:19:56.992Z,8.42
2018-01-27T06:20:37.436Z,8.42
2018-01-27T06:21:17.810Z,8.39
2018-01-27T06:21:58.201Z,8.4
2018-01-27T06:22:38.649Z,8.43
2018-01-27T06:23:19.068Z,8.46
2018-01-27T06:23:59.402Z,8.43
2018-01-27T06:24:39.865Z,8.52
2018-01-27T06:25:20.276Z,8.49
2018-01-27T06:26:00.709Z,8.5
2018-01-27T06:26:41.075Z,8.55
2018-01-27T06:27:21.467Z,8.65
2018-01-27T06:28:01.914Z,8.68
2018-01-27T06:28:42.292Z,8.76
2018-01-27T06:29:22.700Z,8.73
2018-01-27T06:30:03.067Z,8.79
2018-01-27T06:30:43.472Z,8.85
2018-01-27T06:31:23.896Z,8.91
2018-01-27T06:32:04.244Z,8.97
2018-01-27T06:32:44.728Z,8.98
2018-01-27T06:33:25.059Z,8.98
2018-01-27T06:34:05.443Z,9.03
2018-01-27T06:34:45.940Z,9.01
2018-01-27T06:35:26.327Z,9.06
2018-01-27T06:36:06.697Z,9.19
2018-01-27T06:36:47.183Z,9.12
2018-01-27T06:37:27.547Z,9.16
2018-01-27T06:38:07.972Z,9.22
2018-01-27T06:38:48.340Z,9.2
2018-01-27T06:39:28.776Z,9.3
2018-01-27T06:40:09.173Z,9.26
2018-01-27T06:40:49.586Z,9.38
2018-01-27T06:41:30.018Z,9.37
2018-01-27T06:42:10.465Z,9.45
2018-01-27T06:42:50.807Z,9.41
2018-01-27T06:43:31.263Z,9.4
2018-01-27T06:44:11.603Z,9.48
2018-01-27T06:44:52.053Z,9.41
2018-01-27T06:45:32.411Z,9.48
2018-01-27T06:46:12.930Z,9.44
2018-01-27T06:46:53.389Z,9.4
2018-01-27T06:47:33.790Z,9.34
2018-01-27T06:48:14.226Z,9.31
2018-01-27T06:48:54.602Z,9.31
2018-01-27T06:49:35.025Z,9.31
2018-01-27T06:50:15.378Z,9.35
2018-01-27T06:50:55.839Z,9.22
2018-01-27T06:51:36.203Z,9.34
2018-01-27T06:52:16.597Z,9.26
2018-01-27T06:52:57.135Z,9.27
2018-01-27T06:53:37.465Z,9.26
2018-01-27T06:54:17.909Z,9.22
2018-01-27T06:54:58.276Z,9.27
2018-01-27T06:55:38.626Z,9.26
2018-01-27T06:56:19.042Z,9.32
2018-01-27T06:56:59.548Z,9.31
2018-01-27T06:57:39.960Z,9.22
2018-01-27T06:58:20.410Z,9.3
2018-01-27T06:59:00.803Z,9.23
2018-01-27T06:59:41.197Z,9.23
2018-01-27T07:00:21.775Z,9.12
2018-01-27T07:01:01.964Z,9.23
2018-01-27T07:01:42.606Z,9.12
2018-01-27T07:02:24.229Z,9.26
2018-01-27T07:03:03.915Z,9.08
2018-01-27T07:03:45.580Z,9.08
2018-01-27T07:04:27.063Z,9.12
2018-01-27T07:05:06.448Z,9.01
2018-01-27T07:05:47.081Z,9.04
2018-01-27T07:06:28.442Z,8.94
2018-01-27T07:07:08.298Z,8.96
2018-01-27T07:07:48.730Z,8.91
2018-01-27T07:08:29.097Z,8.85
2018-01-27T07:09:09.630Z,8.76
2018-01-27T07:09:50.039Z,8.73
2018-01-27T07:10:30.485Z,8.78
2018-01-27T07:11:10.898Z,8.67
2018-01-27T07:11:51.335Z,8.64
2018-01-27T07:12:31.638Z,8.54
2018-01-27T07:13:12.072Z,8.58
2018-01-27T07:13:52.955Z,8.61
2018-01-27T07:14:33.308Z,8.54
2018-01-27T07:15:13.736Z,8.54
2018-01-27T07:15:54.516Z,8.52
2018-01-27T07:16:34.918Z,8.55
2018-01-27T07:17:15.483Z,8.61
2018-01-27T07:17:56.606Z,8.65
2018-01-27T07:18:37.151Z,8.7
2018-01-27T07:19:17.537Z,8.67
2018-01-27T07:19:58.243Z,8.63
2018-01-27T07:20:38.673Z,8.8
2018-01-27T07:21:19.062Z,8.78
2018-01-27T07:21:59.465Z,8.89
2018-01-27T07:22:39.845Z,8.96
2018-01-27T07:23:20.280Z,8.94
2018-01-27T07:24:00.593Z,8.93
2018-01-27T07:24:41.121Z,8.94
2018-01-27T07:25:21.593Z,8.86
2018-01-27T07:26:01.939Z,8.85
2018-01-27T07:26:42.375Z,8.89
2018-01-27T07:27:22.719Z,8.88
2018-01-27T07:28:03.207Z,8.89
2018-01-27T07:28:43.615Z,8.88
2018-01-27T07:29:24.062Z,8.8
2018-01-27T07:30:04.446Z,8.8
2018-01-27T07:30:44.904Z,8.91
2018-01-27T07:31:25.439Z,8.86
2018-01-27T07:32:05.868Z,8.82
2018-01-27T07:32:46.190Z,8.76
2018-01-27T07:33:26.673Z,8.75
2018-01-27T07:34:08.164Z,8.67
2018-01-27T07:35:00.070Z,8.71
2018-01-27T07:35:40.686Z,8.57
2018-01-27T07:36:20.925Z,8.52
2018-01-27T07:37:01.306Z,8.47
2018-01-27T07:37:41.769Z,8.54
2018-01-27T07:38:22.185Z,8.47
2018-01-27T07:39:02.582Z,8.46
2018-01-27T07:39:42.979Z,8.55
2018-01-27T07:40:23.438Z,8.43
2018-01-27T07:41:03.836Z,8.4
2018-01-27T07:41:44.380Z,8.43
2018-01-27T07:42:24.657Z,8.29
2018-01-27T07:43:05.118Z,8.27
2018-01-27T07:43:45.545Z,8.21
2018-01-27T07:44:26.049Z,8.29
2018-01-27T07:45:06.817Z,8.31
2018-01-27T07:45:47.159Z,8.27
2018-01-27T07:46:27.548Z,8.14
2018-01-27T07:47:07.938Z,8.29
2018-01-27T07:47:48.338Z,8.21
2018-01-27T07:48:28.696Z,8.32
2018-01-27T07:49:09.144Z,8.28
2018-01-27T07:49:49.538Z,8.27
2018-01-27T07:50:29.946Z,8.36
2018-01-27T07:51:10.360Z,8.27
2018-01-27T07:51:50.729Z,8.31
2018-01-27T07:52:31.143Z,8.29
2018-01-27T07:53:11.554Z,8.31
2018-01-27T07:53:51.948Z,8.28
2018-01-27T07:54:32.309Z,8.34
2018-01-27T07:55:12.718Z,8.32
2018-01-27T07:55:53.111Z,8.22
2018-01-27T07:56:33.531Z,8.31
2018-01-27T07:57:13.892Z,8.39
2018-01-27T07:57:54.332Z,8.32
2018-01-27T07:58:34.718Z,8.28
2018-01-27T07:59:15.153Z,8.28
2018-01-27T07:59:55.554Z,8.27
2018-01-27T08:00:35.931Z,8.29
2018-01-27T08:01:16.290Z,8.34
2018-01-27T08:01:56.716Z,8.29
2018-01-27T08:02:37.100Z,8.29
2018-01-27T08:03:17.485Z,8.29
2018-01-27T08:03:57.858Z,8.36
2018-01-27T08:04:38.312Z,8.32
2018-01-27T08:05:18.624Z,8.32
2018-01-27T08:05:59.087Z,8.42
2018-01-27T08:06:39.564Z,8.47
2018-01-27T08:07:19.959Z,8.57
2018-01-27T08:08:00.352Z,8.52
2018-01-27T08:08:40.761Z,8.6
2018-01-27T08:09:21.263Z,8.61
2018-01-27T08:10:01.647Z,8.68
2018-01-27T08:10:42.057Z,8.73
2018-01-27T08:11:22.507Z,8.64
2018-01-27T08:12:02.901Z,8.7
2018-01-27T08:12:43.288Z,8.63
2018-01-27T08:13:23.684Z,8.75
2018-01-27T08:14:04.142Z,8.76
2018-01-27T08:14:44.551Z,8.63
2018-01-27T08:15:24.896Z,8.71
2018-01-27T08:16:05.293Z,8.76
2018-01-27T08:16:45.741Z,8.71
2018-01-27T08:17:26.102Z,8.71
2018-01-27T08:18:06.539Z,8.71
2018-01-27T08:18:47.030Z,8.71
2018-01-27T08:19:27.344Z,8.71
2018-01-27T08:20:07.708Z,8.78
2018-01-27T08:20:48.209Z,8.7
2018-01-27T08:21:28.573Z,8.82
2018-01-27T08:22:09.011Z,8.73
2018-01-27T08:22:49.387Z,8.86
2018-01-27T08:23:29.838Z,8.86
2018-01-27T08:24:10.242Z,8.89
2018-01-27T08:24:50.598Z,8.94
2018-01-27T08:25:31.057Z,8.98
2018-01-27T08:26:11.410Z,8.97
2018-01-27T08:26:51.789Z,8.96
2018-01-27T08:27:32.217Z,9.01
2018-01-27T08:28:12.573Z,8.97
2018-01-27T08:28:52.971Z,8.96
2018-01-27T08:29:33.429Z,8.93
2018-01-27T08:30:13.788Z,8.88
2018-01-27T08:30:54.238Z,8.86
2018-01-27T08:31:34.668Z,8.94
2018-01-27T08:32:15.047Z,8.83
2018-01-27T08:32:55.455Z,8.91
2018-01-27T08:33:35.949Z,8.85
2018-01-27T08:34:16.328Z,8.85
2018-01-27T08:34:56.808Z,8.78
2018-01-27T08:35:37.200Z,8.78
2018-01-27T08:36:17.531Z,8.75
2018-01-27T08:36:57.992Z,8.78
2018-01-27T08:37:38.667Z,8.79
2018-01-27T08:38:19.059Z,8.78
2018-01-27T08:38:59.487Z,8.79
2018-01-27T08:39:39.794Z,8.8
2018-01-27T08:40:20.259Z,8.82
2018-01-27T08:41:00.602Z,8.76
2018-01-27T08:41:41.035Z,8.73
2018-01-27T08:42:21.495Z,8.8
2018-01-27T08:43:01.836Z,8.78
2018-01-27T08:43:42.244Z,8.79
2018-01-27T08:44:22.681Z,8.8
2018-01-27T08:45:03.044Z,8.8
2018-01-27T08:45:43.508Z,8.82
2018-01-27T08:46:23.913Z,8.8
2018-01-27T08:47:04.322Z,8.76
2018-01-27T08:47:44.714Z,8.79
2018-01-27T08:48:25.125Z,8.89
2018-01-27T08:49:05.556Z,8.88
2018-01-27T08:49:45.935Z,8.91
2018-01-27T08:50:26.318Z,9.1
2018-01-27T08:51:06.700Z,9.24
2018-01-27T08:51:47.108Z,9.32
2018-01-27T08:52:27.561Z,9.52
2018-01-27T08:53:07.938Z,9.71
2018-01-27T08:53:48.378Z,9.96
2018-01-27T08:54:28.714Z,10.06
2018-01-27T08:55:09.112Z,10.14
2018-01-27T08:55:49.538Z,10.36
2018-01-27T08:56:29.916Z,10.39
2018-01-27T08:57:10.323Z,10.68
2018-01-27T08:57:50.739Z,10.7
2018-01-27T08:58:31.165Z,10.95
2018-01-27T08:59:11.619Z,11.11
2018-01-27T08:59:52.037Z,11.2
2018-01-27T09:00:32.438Z,11.33
2018-01-27T09:01:12.936Z,11.59
2018-01-27T09:01:53.381Z,11.75
2018-01-27T09:02:33.772Z,11.87
2018-01-27T09:03:14.119Z,11.93
2018-01-27T09:03:54.645Z,12.05
2018-01-27T09:04:34.994Z,12.07
2018-01-27T09:05:15.437Z,12.13
2018-01-27T09:05:55.757Z,12.16
2018-01-27T09:06:36.270Z,12.18
2018-01-27T09:07:16.913Z,12.15
2018-01-27T09:07:57.192Z,12.12
2018-01-27T09:08:37.548Z,12.11
2018-01-27T09:09:18.152Z,12.03
2018-01-27T09:09:58.452Z,12.05
2018-01-27T09:10:38.808Z,11.93
2018-01-27T09:11:19.244Z,12.07
2018-01-27T09:11:59.657Z,12
2018-01-27T09:12:40.189Z,11.94
2018-01-27T09:13:20.507Z,11.96
2018-01-27T09:14:01.464Z,12.11
2018-01-27T09:14:41.810Z,12.01
2018-01-27T09:15:22.293Z,12.11
2018-01-27T09:16:02.709Z,11.88
2018-01-27T09:16:43.165Z,11.98
2018-01-27T09:17:23.581Z,11.9
2018-01-27T09:18:03.985Z,11.84
2018-01-27T09:18:44.371Z,11.84
2018-01-27T09:19:24.770Z,11.77
2018-01-27T09:20:05.222Z,11.72
2018-01-27T09:20:45.596Z,11.51
2018-01-27T09:21:25.934Z,11.44
2018-01-27T09:22:06.418Z,11.42
2018-01-27T09:22:46.766Z,11.53
2018-01-27T09:23:27.108Z,11.51
2018-01-27T09:24:07.557Z,11.6
2018-01-27T09:24:47.957Z,11.66
2018-01-27T09:25:28.395Z,11.63
2018-01-27T09:26:08.851Z,11.64
2018-01-27T09:26:49.225Z,11.56
2018-01-27T09:27:29.586Z,11.49
2018-01-27T09:28:10.017Z,11.33
2018-01-27T09:28:50.400Z,11.39
2018-01-27T09:29:30.818Z,11.21
2018-01-27T09:30:11.273Z,11.2
2018-01-27T09:30:51.645Z,11.03
2018-01-27T09:31:32.044Z,10.88
2018-01-27T09:32:13.165Z,11.01
2018-01-27T09:32:53.518Z,11.08
2018-01-27T09:33:34.269Z,11.06
2018-01-27T09:34:14.679Z,11.09
2018-01-27T09:36:23.725Z,11.11
2018-01-27T09:37:30.666Z,11.2
2018-01-27T09:38:55.997Z,11.31
2018-01-27T09:42:09.085Z,12.03
2018-01-27T09:43:01.825Z,12.19
2018-01-27T09:43:58.397Z,12.12
2018-01-27T09:44:49.976Z,12.34
2018-01-27T09:45:42.562Z,12.36
2018-01-27T09:46:35.311Z,12.52
2018-01-27T09:47:27.613Z,12.59
2018-01-27T09:48:20.792Z,12.7
2018-01-27T09:49:13.506Z,12.91
2018-01-27T09:50:05.704Z,12.94
2018-01-27T09:50:46.623Z,13.1
2018-01-27T09:51:28.619Z,13.09
2018-01-27T09:52:10.474Z,13.16
2018-01-27T09:52:50.812Z,13.14
2018-01-27T09:53:31.390Z,13.25
2018-01-27T09:54:12.502Z,13.24
2018-01-27T09:54:53.989Z,13.19
2018-01-27T09:55:34.696Z,13.16
2018-01-27T09:56:15.051Z,13.31
2018-01-27T09:56:55.451Z,13.27
2018-01-27T09:57:35.796Z,13.31
2018-01-27T09:58:16.164Z,13.32
2018-01-27T09:58:56.670Z,13.41
2018-01-27T09:59:37.092Z,13.41
2018-01-27T10:01:11.516Z,13.53
2018-01-27T10:01:51.024Z,13.47
2018-01-27T10:02:31.369Z,13.65
2018-01-27T10:03:13.658Z,13.55
2018-01-27T10:43:19.982Z,12.15
2018-01-27T10:44:32.274Z,12.12
2018-01-27T10:47:49.673Z,12.15
2018-01-27T10:53:09.365Z,11.93
2018-01-27T10:53:57.737Z,12.12
2018-01-27T10:54:46.145Z,12.38
2018-01-27T10:55:33.912Z,12.61
2018-01-27T10:56:22.508Z,12.81
2018-01-27T10:57:11.584Z,12.71
2018-01-27T10:59:05.470Z,12.77
2018-01-27T10:59:59.051Z,12.79
2018-01-27T11:00:54.804Z,12.74
2018-01-27T11:01:56.282Z,13.06
2018-01-27T11:02:49.041Z,13.24
2018-01-27T11:03:41.074Z,13.04
2018-01-27T11:04:33.420Z,12.89
2018-01-27T11:05:26.098Z,12.67
2018-01-27T11:06:10.811Z,12.58
2018-01-27T11:06:51.188Z,12.46
2018-01-27T11:07:32.849Z,12.46
2018-01-27T11:08:13.249Z,12.37
2018-01-27T11:08:53.620Z,12.34
2018-01-27T11:09:34.021Z,12.26
2018-01-27T11:10:14.462Z,12.34
2018-01-27T11:10:54.830Z,12.34
2018-01-27T11:11:35.276Z,12.34
2018-01-27T11:12:15.705Z,12.26
2018-01-27T11:12:56.177Z,12.11
2018-01-27T11:13:36.577Z,12.25
2018-01-27T11:14:17.006Z,12.25
2018-01-27T11:14:57.454Z,12.33
2018-01-27T11:15:38.299Z,12.26
2018-01-27T11:16:18.730Z,12.25
2018-01-27T11:16:59.166Z,12.38
2018-01-27T11:17:40.861Z,12.11
2018-01-27T11:18:21.279Z,12.11
2018-01-27T11:19:01.725Z,12.05
2018-01-27T11:19:42.200Z,12
2018-01-27T11:20:22.670Z,12
2018-01-27T11:21:03.108Z,11.94
2018-01-27T11:21:43.553Z,12.11
2018-01-27T11:22:23.886Z,12.16
2018-01-27T11:23:04.282Z,12.16
2018-01-27T11:23:45.061Z,12.23
2018-01-27T11:24:32.897Z,12.18
2018-01-27T11:25:13.299Z,12.05
2018-01-27T11:25:54.126Z,11.93
2018-01-27T11:26:34.930Z,11.87
2018-01-27T11:27:15.410Z,11.87
2018-01-27T11:27:55.795Z,11.97
2018-01-27T11:29:58.239Z,12.29
2018-01-27T11:30:54.211Z,12.23
2018-01-27T11:31:48.121Z,12.38
2018-01-27T11:32:28.569Z,12.33
2018-01-27T11:33:09.216Z,12.34
2018-01-27T11:33:51.185Z,12.51
2018-01-27T11:34:33.162Z,12.49
2018-01-27T11:35:15.203Z,12.38
2018-01-27T11:35:55.331Z,12.44
2018-01-27T11:36:35.836Z,12.34
2018-01-27T11:37:16.298Z,12.4
2018-01-27T11:37:57.117Z,12.4
2018-01-27T11:38:37.648Z,12.4
2018-01-27T11:39:18.055Z,12.41
2018-01-27T11:39:58.519Z,12.41
2018-01-27T11:40:39.887Z,12.41
2018-01-27T11:41:20.518Z,12.41
2018-01-27T11:42:01.448Z,12.38
2018-01-27T11:42:42.001Z,12.48
2018-01-27T11:43:23.668Z,12.44
2018-01-27T11:44:04.022Z,12.46
2018-01-27T11:44:52.702Z,12.49
2018-01-27T11:45:36.836Z,12.51
2018-01-27T11:46:24.178Z,12.44
2018-01-27T11:47:04.512Z,12.54
2018-01-27T11:47:44.815Z,12.58
2018-01-27T11:48:26.165Z,12.59
2018-01-27T11:49:06.372Z,12.77
2018-01-27T11:49:47.120Z,12.8
2018-01-27T11:50:36.637Z,12.89
2018-01-27T11:51:24.520Z,12.79
2018-01-27T11:52:04.827Z,12.66
2018-01-27T11:52:45.280Z,12.76
2018-01-27T11:53:25.654Z,12.76
2018-01-27T11:54:06.448Z,12.8
2018-01-27T11:54:47.062Z,12.77
2018-01-27T11:55:27.543Z,12.73
2018-01-27T11:56:08.262Z,12.7
2018-01-27T11:56:48.685Z,12.62
2018-01-27T11:57:29.192Z,12.63
2018-01-27T11:58:09.543Z,12.62
2018-01-27T11:58:49.969Z,12.74
2018-01-27T11:59:30.377Z,12.8
2018-01-27T12:00:10.754Z,12.95
2018-01-27T12:00:51.226Z,13.01
2018-01-27T12:01:31.534Z,12.84
2018-01-27T12:02:11.969Z,12.89
2018-01-27T12:02:52.369Z,12.8
2018-01-27T12:03:32.830Z,12.79
2018-01-27T12:04:13.268Z,12.79
2018-01-27T12:04:53.635Z,12.74
2018-01-27T12:05:34.019Z,12.59
2018-01-27T12:06:14.469Z,12.8
2018-01-27T12:06:54.854Z,12.92
2018-01-27T12:07:35.203Z,13.04
2018-01-27T12:08:15.651Z,12.94
2018-01-27T12:08:55.983Z,12.91
2018-01-27T12:11:38.521Z,12.95
2018-01-27T12:12:20.490Z,12.8
2018-01-27T12:13:02.020Z,12.73
2018-01-27T12:13:49.861Z,12.44
2018-01-27T12:14:34.556Z,12.44
2018-01-27T12:19:52.287Z,12.77
2018-01-27T12:25:50.496Z,13.07
2018-01-27T12:31:32.605Z,13.48
2018-01-27T12:32:25.370Z,13.55
2018-01-27T12:33:07.589Z,13.53
2018-01-27T12:34:39.186Z,13.46
2018-01-27T12:44:17.046Z,12.79
2018-01-27T12:46:41.329Z,12.67
2018-01-27T12:47:29.917Z,12.76
2018-01-27T12:54:00.867Z,12.89
2018-01-27T12:54:44.909Z,12.89
2018-01-27T12:55:25.175Z,12.79
2018-01-27T12:56:09.352Z,12.8
2018-01-27T12:56:51.241Z,12.66
2018-01-27T13:01:31.993Z,12.43
2018-01-27T13:05:09.368Z,12.37
2018-01-27T13:05:52.020Z,12.31
2018-01-27T13:11:44.924Z,12.46
2018-01-27T13:19:31.442Z,12.62
2018-01-27T13:20:14.259Z,12.58
2018-01-27T13:20:58.366Z,12.56
2018-01-27T13:25:44.553Z,12.25
2018-01-27T13:26:33.762Z,12.26
2018-01-27T13:27:22.219Z,12.31
2018-01-27T13:28:11.453Z,12.3
2018-01-27T13:28:59.275Z,12.3
2018-01-27T13:32:25.102Z,12.38
2018-01-27T13:33:15.450Z,12.52
2018-01-27T13:34:03.031Z,12.46
2018-01-27T13:34:51.600Z,12.44
2018-01-27T13:35:41.809Z,12.54
2018-01-27T13:36:30.434Z,12.44
2018-01-27T13:40:44.980Z,12.44
2018-01-27T13:41:35.549Z,12.41
2018-01-27T13:42:24.721Z,12.33
2018-01-27T13:43:13.462Z,12.16
2018-01-27T13:44:02.815Z,12.15
2018-01-27T13:44:51.402Z,11.98
2018-01-27T13:49:23.175Z,11.79
2018-01-27T13:50:12.196Z,11.63
2018-01-27T13:51:00.687Z,11.62
2018-01-27T13:51:49.543Z,11.62
2018-01-27T13:52:38.153Z,11.6
2018-01-27T13:53:26.440Z,11.69
2018-01-27T13:54:15.502Z,11.6
2018-01-27T13:55:04.144Z,11.72
2018-01-27T13:55:55.142Z,11.78
2018-01-27T13:56:43.898Z,11.85
2018-01-27T13:57:32.580Z,11.85
2018-01-27T13:58:22.776Z,11.94
2018-01-27T14:05:39.771Z,11.82
2018-01-27T14:08:48.357Z,12
2018-01-27T14:14:41.623Z,13.24
2018-01-27T14:17:25.532Z,13.48
2018-01-27T14:18:05.614Z,13.57
2018-01-27T14:19:32.445Z,13.69
2018-01-27T14:20:17.208Z,13.62
2018-01-27T14:26:24.201Z,14.23
2018-01-27T14:27:12.988Z,14.3
2018-01-27T14:28:02.463Z,14.34
2018-01-27T14:28:50.893Z,14.39
2018-01-27T14:29:40.115Z,14.42
2018-01-27T14:53:12.875Z,13.69
2018-01-27T14:58:33.920Z,13.88
2018-01-27T15:08:20.298Z,12.87
2018-01-27T15:09:08.904Z,12.76
2018-01-27T15:09:58.565Z,12.79
2018-01-27T15:10:47.068Z,12.87
2018-01-27T15:11:36.110Z,12.89
2018-01-27T15:12:24.566Z,12.99
2018-01-27T15:16:02.372Z,12.8
2018-01-27T15:31:22.724Z,11.23
2018-01-27T15:33:07.412Z,11.12
2018-01-27T15:35:28.611Z,10.73
2018-01-27T15:41:13.722Z,10.26
2018-01-27T15:41:58.134Z,10.29
2018-01-27T15:42:39.999Z,10.1
2018-01-27T15:43:22.650Z,10.09
2018-01-27T15:44:04.151Z,10.02
2018-01-27T15:44:43.661Z,10.01
2018-01-27T15:45:26.843Z,9.99
2018-01-27T15:46:06.656Z,9.89
2018-01-27T15:48:01.513Z,10.01
2018-01-27T15:56:01.710Z,10.26
2018-01-27T15:56:41.825Z,10.34
2018-01-27T15:57:22.361Z,10.35
2018-01-27T15:58:02.822Z,10.28
2018-01-27T15:58:43.244Z,10.31
2018-01-27T15:59:23.704Z,10.32
2018-01-27T16:00:04.062Z,10.39
2018-01-27T16:00:44.823Z,10.24
2018-01-27T16:01:25.326Z,10.24
2018-01-27T16:02:05.622Z,10.28
2018-01-27T16:02:46.027Z,10.39
2018-01-27T16:03:26.677Z,10.26
2018-01-27T16:04:07.155Z,10.35
2018-01-27T16:04:47.631Z,10.38
2018-01-27T16:55:25.939Z,7.52
2018-01-27T18:32:33.489Z,6.28
2018-01-27T18:33:24.426Z,6.27
2018-01-27T18:34:12.667Z,6.32
2018-01-27T18:35:01.689Z,6.32
2018-01-27T18:35:51.096Z,6.36
2018-01-27T18:46:14.118Z,6.19
2018-01-27T18:53:24.446Z,6.05